Time;durP1;ratioP1;P1;durP2;ratioP2;P2;SDS_P1;SDS_P2;PMS_P1;PMS_P2;Temp;Humidity;BMP_temperature;BMP_pressure;BME280_temperature;BME280_humidity;BME280_pressure;Samples;Min_cycle;Max_cycle;Signal;HPM_P1;HPM_P2
2022/11/16 00:00:18;;;;;;;4.13;2.40;;;;;;;14.76;67.06;95833.50;4935544;28;20213;-75
2022/11/16 00:02:43;;;;;;;3.00;2.70;;;;;;;14.65;67.23;95827.75;4942028;28;20281;-75
2022/11/16 00:05:09;;;;;;;3.72;2.50;;;;;;;14.50;68.12;95825.53;4922458;28;20282;-75
2022/11/16 00:07:34;;;;;;;4.45;2.83;;;;;;;14.70;67.46;95825.00;4920376;28;20373;-75
2022/11/16 00:10:00;;;;;;;4.53;2.67;;;;;;;14.74;67.46;95825.94;4914853;28;20324;-74
2022/11/16 00:12:25;;;;;;;3.88;2.50;;;;;;;14.47;68.21;95816.41;4914009;28;20233;-75
2022/11/16 00:14:51;;;;;;;2.67;2.20;;;;;;;14.75;67.64;95816.22;4900119;28;20165;-74
2022/11/16 00:17:16;;;;;;;2.42;2.22;;;;;;;14.83;67.29;95810.22;4933098;28;20306;-74
2022/11/16 00:19:41;;;;;;;2.95;2.20;;;;;;;14.89;66.91;95808.22;4923020;28;20232;-75
2022/11/16 00:22:07;;;;;;;2.53;2.28;;;;;;;14.67;67.71;95817.75;4886599;28;20706;-75
2022/11/16 00:24:32;;;;;;;2.92;2.10;;;;;;;14.79;67.51;95828.41;4900868;28;20765;-75
2022/11/16 00:26:58;;;;;;;3.55;1.88;;;;;;;14.92;67.20;95821.50;4890202;28;20275;-74
2022/11/16 00:29:24;;;;;;;3.25;2.50;;;;;;;14.86;67.19;95801.75;4910484;28;20283;-75
2022/11/16 00:31:50;;;;;;;2.78;2.58;;;;;;;14.63;67.84;95795.06;4911537;28;20231;-74
2022/11/16 00:34:17;;;;;;;3.97;2.15;;;;;;;14.73;67.91;95806.03;4909953;28;20758;-75
2022/11/16 00:36:42;;;;;;;2.55;2.17;;;;;;;14.73;67.81;95806.03;4914538;28;20183;-75
2022/11/16 00:39:15;;;;;;;3.17;1.83;;;;;;;14.76;68.02;95796.81;4925604;28;20284;-74
2022/11/16 00:41:42;;;;;;;3.22;2.10;;;;;;;14.51;68.29;95790.38;4899234;28;20628;-74
2022/11/16 00:44:07;;;;;;;2.83;2.08;;;;;;;14.38;69.01;95792.03;4912584;28;20200;-74
2022/11/16 00:46:33;;;;;;;2.60;1.52;;;;;;;14.43;68.36;95784.81;4913566;28;20604;-74
2022/11/16 00:48:58;;;;;;;3.00;2.03;;;;;;;14.47;68.88;95777.13;4900210;28;20180;-74
2022/11/16 00:51:23;;;;;;;2.00;1.70;;;;;;;14.48;68.83;95780.50;4935877;28;20220;-74
2022/11/16 00:53:49;;;;;;;2.85;1.55;;;;;;;14.71;68.24;95779.38;4898533;28;20166;-74
2022/11/16 00:56:14;;;;;;;1.70;1.38;;;;;;;14.74;67.94;95773.53;4916031;28;20403;-74
2022/11/16 00:58:40;;;;;;;1.67;1.55;;;;;;;14.79;67.40;95781.25;4912979;28;20366;-74
2022/11/16 01:01:07;;;;;;;1.83;1.40;;;;;;;14.59;68.05;95774.72;4895846;28;20316;-75
2022/11/16 01:03:33;;;;;;;1.85;1.60;;;;;;;14.83;67.62;95781.41;4912812;28;20193;-74
2022/11/16 01:06:04;;;;;;;2.88;1.60;;;;;;;14.58;68.19;95772.38;4915254;28;20413;-74
2022/11/16 01:08:30;;;;;;;1.73;1.55;;;;;;;14.76;67.86;95778.47;4899230;28;20291;-74
2022/11/16 01:12:07;;;;;;;1.92;1.73;;;;;;;14.81;66.98;95780.19;4923076;28;20514;-74
2022/11/16 01:13:40;;;;;;;2.00;1.42;;;;;;;14.72;67.38;95767.81;4924659;28;20625;-74
2022/11/16 01:16:06;;;;;;;1.52;1.42;;;;;;;14.60;68.24;95775.50;4883756;28;20281;-74
2022/11/16 01:18:32;;;;;;;2.10;1.40;;;;;;;14.77;67.85;95782.63;4903871;28;20347;-75
2022/11/16 01:20:58;;;;;;;1.67;1.33;;;;;;;14.72;68.00;95775.69;4930494;28;21287;-74
2022/11/16 01:23:23;;;;;;;2.03;1.25;;;;;;;14.80;67.86;95782.00;4917878;28;20443;-75
2022/11/16 01:25:56;;;;;;;2.85;1.70;;;;;;;14.97;67.28;95782.03;4904954;28;20360;-75
2022/11/16 01:28:21;;;;;;;2.28;1.65;;;;;;;14.73;67.72;95782.44;4923490;28;20357;-75
2022/11/16 01:30:47;;;;;;;3.22;1.40;;;;;;;14.68;67.63;95794.94;4913282;28;20335;-75
2022/11/16 01:33:13;;;;;;;4.47;1.70;;;;;;;14.78;67.76;95779.69;4892692;28;20205;-75
2022/11/16 01:35:42;;;;;;;2.22;1.30;;;;;;;14.92;67.43;95797.13;4920047;28;20361;-75
2022/11/16 01:38:07;;;;;;;2.13;1.50;;;;;;;14.92;67.04;95808.38;4917840;28;20817;-75
2022/11/16 01:40:32;;;;;;;3.42;1.70;;;;;;;14.87;67.24;95794.66;4907765;28;20190;-75
2022/11/16 01:42:58;;;;;;;2.08;1.38;;;;;;;14.52;69.10;95802.41;4920743;28;20612;-75
2022/11/16 01:45:36;;;;;;;1.50;1.35;;;;;;;14.84;68.17;95814.41;4891791;28;20366;-75
2022/11/16 01:48:02;;;;;;;2.05;1.40;;;;;;;14.84;68.22;95821.47;4919535;28;20278;-74
2022/11/16 01:50:27;;;;;;;2.70;1.50;;;;;;;14.78;68.35;95821.63;4910174;28;20634;-75
2022/11/16 01:53:03;;;;;;;1.35;1.15;;;;;;;14.89;68.05;95810.84;4917661;28;20212;-75
2022/11/16 01:55:31;;;;;;;1.67;1.05;;;;;;;14.92;67.57;95812.88;4885489;28;20335;-75
2022/11/16 01:57:57;;;;;;;1.30;1.17;;;;;;;14.70;68.13;95809.28;4910200;28;20212;-75
2022/11/16 02:00:22;;;;;;;1.90;1.10;;;;;;;14.94;68.00;95821.19;4909576;28;20646;-75
2022/11/16 02:02:47;;;;;;;2.20;1.15;;;;;;;14.77;67.96;95820.09;4939881;28;20320;-75
2022/11/16 02:05:16;;;;;;;1.75;1.02;;;;;;;14.95;67.52;95820.13;4925614;28;20193;-75
2022/11/16 02:10:49;;;;;;;1.58;1.05;;;;;;;14.82;68.22;95823.63;4923549;28;20185;-75
2022/11/16 02:13:24;;;;;;;2.92;1.25;;;;;;;14.71;67.99;95826.53;4916104;28;20272;-75
2022/11/16 02:16:05;;;;;;;1.88;1.13;;;;;;;14.84;67.95;95817.03;4910154;28;20279;-75
2022/11/16 02:18:48;;;;;;;1.33;1.23;;;;;;;15.03;67.25;95819.38;4922522;28;20678;-75
2022/11/16 02:21:40;;;;;;;1.70;1.20;;;;;;;15.05;67.17;95809.34;4939577;28;20190;-75
2022/11/16 02:25:04;;;;;;;1.55;1.08;;;;;;;15.16;66.72;95821.09;4918755;28;20253;-75
2022/11/16 02:27:29;;;;;;;1.60;1.20;;;;;;;14.84;67.83;95808.38;4891975;28;20390;-75
2022/11/16 02:29:55;;;;;;;2.15;1.20;;;;;;;14.82;67.82;95810.53;4882669;28;20301;-75
2022/11/16 02:32:34;;;;;;;2.28;1.40;;;;;;;14.82;67.91;95806.06;4882917;28;20705;-75
2022/11/16 02:35:08;;;;;;;2.20;1.42;;;;;;;14.85;67.96;95799.44;4847969;28;20224;-74
2022/11/16 02:37:38;;;;;;;1.97;1.47;;;;;;;14.92;67.61;95792.66;4853763;28;20206;-74
2022/11/16 02:40:06;;;;;;;2.45;1.50;;;;;;;14.93;67.45;95777.72;4839079;29;20284;-75
2022/11/16 02:42:40;;;;;;;1.88;1.60;;;;;;;14.90;67.58;95770.47;4879486;28;20299;-75
2022/11/16 02:45:08;;;;;;;2.53;1.50;;;;;;;14.85;67.62;95770.63;4854924;29;20240;-75
2022/11/16 02:47:34;;;;;;;3.30;1.48;;;;;;;14.83;67.84;95776.16;4863672;28;20646;-75
2022/11/16 02:50:05;;;;;;;1.70;1.42;;;;;;;14.87;67.45;95784.19;4868741;28;20305;-75
2022/11/16 02:52:30;;;;;;;2.13;1.33;;;;;;;14.77;67.51;95785.22;4853483;28;20259;-75
2022/11/16 02:54:55;;;;;;;2.45;1.60;;;;;;;14.78;67.32;95803.28;4874924;28;20182;-75
2022/11/16 02:57:56;;;;;;;2.95;1.50;;;;;;;14.82;67.71;95790.34;4885116;28;20302;-75
2022/11/16 03:00:25;;;;;;;1.85;1.27;;;;;;;14.76;67.46;95802.81;4852071;28;20235;-75
2022/11/16 03:03:06;;;;;;;3.25;1.40;;;;;;;14.70;67.97;95798.81;4914094;28;20296;-74
2022/11/16 03:06:12;;;;;;;1.63;1.08;;;;;;;14.87;67.25;95794.66;4926972;28;20291;-74
2022/11/16 03:08:41;;;;;;;3.58;1.25;;;;;;;14.60;68.39;95799.09;4902134;28;20377;-75
2022/11/16 03:13:54;;;;;;;;;;;;;;;14.96;66.70;95803.34;4924335;28;20443;-75
2022/11/16 03:16:26;;;;;;;2.17;1.10;;;;;;;14.82;66.93;95808.66;4919376;28;19956;-75
2022/11/16 03:18:52;;;;;;;2.35;1.02;;;;;;;14.75;67.48;95803.09;4919156;28;20212;-75
2022/11/16 03:21:29;;;;;;;1.70;0.93;;;;;;;14.78;67.27;95805.91;4916794;28;20162;-74
2022/11/16 03:23:55;;;;;;;1.23;0.90;;;;;;;14.57;67.57;95783.94;4906508;28;20181;-75
2022/11/16 03:26:24;;;;;;;1.25;0.82;;;;;;;14.71;67.76;95786.47;4909052;28;20239;-74
2022/11/16 03:28:58;;;;;;;1.83;0.65;;;;;;;14.67;67.33;95786.31;4908313;28;20242;-74
2022/11/16 03:31:30;;;;;;;1.27;0.98;;;;;;;14.66;67.08;95792.63;4896321;28;20240;-75
2022/11/16 03:34:03;;;;;;;1.13;0.70;;;;;;;14.56;67.46;95793.63;4903339;28;20216;-75
2022/11/16 03:36:31;;;;;;;1.00;0.60;;;;;;;14.56;67.40;95798.09;4902937;28;20312;-74
2022/11/16 03:39:04;;;;;;;1.00;0.90;;;;;;;14.72;66.83;95803.72;4918660;28;20171;-75
2022/11/16 03:41:30;;;;;;;1.77;0.70;;;;;;;14.55;67.03;95802.56;4922305;28;20201;-75
2022/11/16 03:43:56;;;;;;;0.68;0.60;;;;;;;14.54;67.24;95810.72;4921376;28;20663;-75
2022/11/16 03:46:21;;;;;;;1.20;0.93;;;;;;;14.50;67.02;95807.94;4901924;28;20281;-75
2022/11/16 03:48:46;;;;;;;2.05;0.60;;;;;;;14.50;66.97;95812.44;4918775;28;20262;-75
2022/11/16 03:51:12;;;;;;;1.55;0.60;;;;;;;14.50;67.54;95812.44;4953469;28;20669;-75
2022/11/16 03:53:38;;;;;;;0.98;0.85;;;;;;;14.48;67.32;95817.97;4924942;28;20385;-75
2022/11/16 03:56:03;;;;;;;1.23;0.60;;;;;;;14.57;66.82;95820.59;4908675;28;20638;-75
2022/11/16 03:58:29;;;;;;;1.55;0.73;;;;;;;14.39;67.40;95825.78;4902390;28;20204;-75
2022/11/16 04:00:54;;;;;;;2.88;0.80;;;;;;;14.46;67.21;95819.31;4916367;28;20195;-75
2022/11/16 04:03:20;;;;;;;0.75;0.45;;;;;;;14.39;67.06;95827.59;4896422;28;20405;-75
2022/11/16 04:25:09;;;;;;;0.93;0.80;;;;;;;14.58;66.02;95843.09;4933431;28;20276;-74
2022/11/16 04:30:19;;;;;;;0.70;0.45;;;;;;;14.39;66.72;95836.25;4920531;28;20747;-75
2022/11/16 04:38:13;;;;;;;0.70;0.40;;;;;;;14.41;66.92;95839.34;4926612;28;20188;-74
2022/11/16 04:40:38;;;;;;;3.38;0.65;;;;;;;13.91;68.40;95834.28;4923558;28;20220;-74
2022/11/16 04:43:04;;;;;;;0.98;0.55;;;;;;;14.11;67.82;95840.09;4922144;28;20317;-74
2022/11/16 04:48:17;;;;;;;1.10;0.65;;;;;;;14.22;67.65;95834.31;4883523;28;20295;-75
2022/11/16 04:50:43;;;;;;;2.25;1.17;;;;;;;14.05;68.26;95835.00;4923885;28;20201;-75
2022/11/16 04:53:08;;;;;;;1.65;0.90;;;;;;;14.21;68.06;95839.84;4902512;28;20162;-75
2022/11/16 04:55:34;;;;;;;1.50;0.95;;;;;;;14.31;68.06;95846.66;4936533;28;20192;-75
2022/11/16 04:58:00;;;;;;;2.05;1.20;;;;;;;14.09;68.80;95843.03;4897253;28;20167;-74
2022/11/16 05:00:26;;;;;;;1.40;0.88;;;;;;;14.34;67.73;95844.25;4914953;28;20221;-75
2022/11/16 05:02:51;;;;;;;1.13;1.02;;;;;;;14.38;67.27;95836.56;4914895;28;20204;-75
2022/11/16 05:05:17;;;;;;;1.27;0.75;;;;;;;14.47;67.42;95842.59;4921600;28;20220;-75
2022/11/16 05:07:42;;;;;;;1.55;0.60;;;;;;;14.46;67.45;95835.81;4916493;28;20178;-75
2022/11/16 05:10:08;;;;;;;0.68;0.60;;;;;;;14.36;67.38;95842.09;4910533;28;20366;-75
2022/11/16 05:12:34;;;;;;;1.45;0.60;;;;;;;14.39;67.25;95838.09;4913329;28;20702;-75
2022/11/16 05:15:00;;;;;;;2.58;0.75;;;;;;;14.31;67.55;95842.22;4891758;28;20162;-75
2022/11/16 05:17:26;;;;;;;1.48;0.75;;;;;;;14.48;67.19;95838.13;4911540;28;20243;-75
2022/11/16 05:22:36;;;;;;;2.83;0.80;;;;;;;14.40;67.54;95837.78;4923214;28;20763;-74
2022/11/16 05:25:02;;;;;;;1.67;1.10;;;;;;;14.45;67.08;95843.97;4923213;28;20257;-75
2022/11/16 05:27:28;;;;;;;2.08;0.82;;;;;;;14.43;67.24;95839.81;4917370;28;20205;-75
2022/11/16 05:29:54;;;;;;;1.23;0.73;;;;;;;14.33;67.62;95844.53;4921629;28;20201;-75
2022/11/16 05:32:20;;;;;;;4.15;1.10;;;;;;;14.35;67.36;95840.53;4921183;28;20710;-75
2022/11/16 05:34:46;;;;;;;2.60;0.98;;;;;;;14.31;67.45;95839.59;4892177;28;20351;-75
2022/11/16 05:37:12;;;;;;;1.30;1.20;;;;;;;14.33;67.60;95847.91;4927167;28;20197;-75
2022/11/16 05:39:38;;;;;;;2.45;0.77;;;;;;;14.46;67.16;95840.28;4931273;28;20202;-75
2022/11/16 05:42:04;;;;;;;3.15;1.25;;;;;;;14.47;67.19;95847.84;4911385;28;20623;-75
2022/11/16 05:44:29;;;;;;;3.53;1.50;;;;;;;14.39;67.39;95845.94;4922687;28;20252;-75
2022/11/16 05:46:55;;;;;;;3.72;1.17;;;;;;;14.50;67.09;95844.63;4950195;28;20290;-75
2022/11/16 05:49:21;;;;;;;2.40;1.02;;;;;;;14.42;67.17;95853.19;4888414;28;20169;-74
2022/11/16 05:51:46;;;;;;;2.05;1.10;;;;;;;14.47;66.86;95850.44;4902319;28;20204;-75
2022/11/16 05:54:14;;;;;;;2.10;1.02;;;;;;;14.43;67.62;95858.13;4921956;28;20228;-75
2022/11/16 05:56:39;;;;;;;6.47;1.50;;;;;;;14.41;67.39;95855.06;4920065;28;20694;-75
2022/11/16 05:59:05;;;;;;;1.45;1.23;;;;;;;14.40;67.46;95858.72;4922731;28;20208;-75
2022/11/16 06:01:30;;;;;;;2.53;1.33;;;;;;;14.48;67.47;95853.84;4919501;28;20365;-75
2022/11/16 06:04:01;;;;;;;1.90;1.02;;;;;;;14.56;67.02;95859.09;4920952;28;20185;-75
2022/11/16 06:06:27;;;;;;;3.20;1.60;;;;;;;14.52;67.67;95875.75;4926230;28;20216;-75
2022/11/16 06:08:52;;;;;;;2.50;1.67;;;;;;;14.37;67.96;95861.94;4898147;28;20284;-74
2022/11/16 06:11:18;;;;;;;3.80;1.75;;;;;;;14.42;67.44;95867.06;4925257;28;20248;-75
2022/11/16 06:13:43;;;;;;;2.33;1.40;;;;;;;14.38;67.33;95860.88;4919050;28;20231;-74
2022/11/16 06:16:10;;;;;;;4.40;1.92;;;;;;;14.39;67.36;95861.66;4909737;28;20378;-75
2022/11/16 06:18:37;;;;;;;2.78;1.73;;;;;;;14.29;67.85;95862.69;4909811;28;20630;-75
2022/11/16 06:21:03;;;;;;;3.40;1.42;;;;;;;14.42;67.15;95868.91;4921012;28;20268;-75
2022/11/16 06:23:28;;;;;;;3.60;1.30;;;;;;;14.23;67.32;95875.13;4881801;28;20178;-75
2022/11/16 06:25:54;;;;;;;3.10;1.30;;;;;;;14.17;67.44;95872.94;4949336;28;20579;-75
2022/11/16 06:28:20;;;;;;;3.58;1.60;;;;;;;14.17;67.39;95881.56;4922048;28;20635;-75
2022/11/16 06:30:46;;;;;;;7.47;2.03;;;;;;;14.31;67.00;95891.19;4920932;28;20729;-75
2022/11/16 06:33:11;;;;;;;3.55;1.27;;;;;;;14.12;67.11;95893.97;4884424;28;20287;-75
2022/11/16 06:35:37;;;;;;;4.13;1.40;;;;;;;14.03;67.75;95899.16;4906181;28;20180;-75
2022/11/16 06:38:02;;;;;;;5.63;1.92;;;;;;;13.95;67.44;95900.66;4925739;28;20186;-75
2022/11/16 06:40:27;;;;;;;1.70;1.58;;;;;;;13.93;67.83;95902.81;4918150;28;20277;-75
2022/11/16 06:42:53;;;;;;;5.20;2.00;;;;;;;13.95;67.63;95910.34;4909244;28;20216;-74
2022/11/16 06:45:18;;;;;;;3.85;1.60;;;;;;;14.02;66.98;95908.09;4915409;28;20220;-75
2022/11/16 06:47:43;;;;;;;3.78;1.20;;;;;;;13.75;67.97;95896.66;4895598;28;20280;-75
2022/11/16 06:50:09;;;;;;;4.20;1.73;;;;;;;13.79;67.98;95907.31;4925683;28;20686;-75
2022/11/16 06:52:34;;;;;;;2.88;1.35;;;;;;;13.85;67.54;95906.13;4924073;28;20577;-75
2022/11/16 06:54:59;;;;;;;3.95;1.48;;;;;;;13.95;67.24;95911.13;4902833;28;20214;-75
2022/11/16 06:57:25;;;;;;;3.33;1.40;;;;;;;13.97;66.99;95910.84;4925585;28;20223;-75
2022/11/16 06:59:50;;;;;;;4.50;2.08;;;;;;;13.92;67.23;95916.94;4896336;28;20201;-74
2022/11/16 07:02:16;;;;;;;3.50;1.70;;;;;;;14.03;66.60;95918.28;4927969;28;20212;-75
2022/11/16 07:04:41;;;;;;;7.63;1.73;;;;;;;13.71;67.47;95927.09;4925853;28;20173;-75
2022/11/16 07:07:06;;;;;;;4.13;1.40;;;;;;;13.88;66.66;95923.84;4919728;28;20247;-75
2022/11/16 07:09:32;;;;;;;5.38;1.20;;;;;;;13.96;66.71;95940.69;4888260;28;20580;-74
2022/11/16 07:11:57;;;;;;;3.10;1.20;;;;;;;13.90;65.99;95934.78;4909581;28;20188;-75
2022/11/16 07:14:22;;;;;;;2.90;0.90;;;;;;;13.80;66.01;95937.63;4923586;28;20247;-75
2022/11/16 07:16:48;;;;;;;4.32;1.38;;;;;;;13.86;65.84;95944.28;4889585;28;20344;-74
2022/11/16 07:19:13;;;;;;;4.15;1.10;;;;;;;13.78;66.27;95945.00;4919395;28;20221;-75
2022/11/16 07:21:39;;;;;;;4.90;1.20;;;;;;;13.70;65.88;95941.25;4909231;28;20208;-75
2022/11/16 07:24:04;;;;;;;4.07;1.65;;;;;;;13.64;66.07;95945.03;4909192;28;20169;-75
2022/11/16 07:26:33;;;;;;;5.13;1.75;;;;;;;13.74;65.77;95946.66;4909105;28;20591;-75
2022/11/16 07:28:59;;;;;;;4.90;0.98;;;;;;;13.58;66.38;95936.50;4903233;28;20646;-75
2022/11/16 07:31:24;;;;;;;5.50;1.58;;;;;;;13.55;65.96;95933.72;4925114;28;20213;-75
2022/11/16 07:33:53;;;;;;;5.68;1.60;;;;;;;13.52;66.02;95935.09;4927551;28;20195;-75
2022/11/16 07:36:19;;;;;;;4.45;1.67;;;;;;;13.38;66.72;95940.31;4927418;28;20312;-74
2022/11/16 07:38:44;;;;;;;5.22;1.05;;;;;;;13.47;66.19;95941.19;4920048;28;20530;-75
2022/11/16 07:41:15;;;;;;;2.40;1.00;;;;;;;13.19;66.59;95937.00;4924715;28;20212;-75
2022/11/16 07:43:40;;;;;;;5.88;1.80;;;;;;;13.19;66.59;95948.22;4932801;28;20231;-75
2022/11/16 07:46:09;;;;;;;7.18;2.33;;;;;;;13.36;66.79;95952.13;4920289;28;20212;-74
2022/11/16 07:48:34;;;;;;;4.97;1.20;;;;;;;13.36;66.60;95952.13;4916318;28;20158;-75
2022/11/16 07:51:00;;;;;;;4.80;1.45;;;;;;;13.33;66.26;95958.72;4903692;28;20705;-75
2022/11/16 07:53:26;;;;;;;4.75;1.20;;;;;;;13.30;66.28;95960.06;4925186;28;20200;-75
2022/11/16 07:55:52;;;;;;;6.18;1.30;;;;;;;13.23;66.78;95966.72;4903758;28;20124;-74
2022/11/16 07:58:18;;;;;;;4.28;1.27;;;;;;;13.21;66.94;95966.25;4921256;28;20228;-75
2022/11/16 08:00:43;;;;;;;3.42;1.42;;;;;;;13.27;66.87;95965.84;4908449;28;20631;-74
2022/11/16 08:03:08;;;;;;;4.85;1.60;;;;;;;13.29;66.88;95968.19;4925956;28;20474;-75
2022/11/16 08:05:34;;;;;;;4.82;1.08;;;;;;;13.32;66.41;95966.88;4925023;28;20203;-75
2022/11/16 08:07:59;;;;;;;3.25;0.80;;;;;;;13.32;66.27;95964.25;4920146;28;20209;-75
2022/11/16 08:10:24;;;;;;;2.42;1.23;;;;;;;13.31;66.32;95963.44;4931357;28;20629;-75
2022/11/16 08:12:50;;;;;;;4.90;1.20;;;;;;;13.24;67.27;95976.88;4891371;28;20762;-74
2022/11/16 08:15:15;;;;;;;6.10;1.65;;;;;;;13.29;66.53;95966.34;4908551;28;20635;-75
2022/11/16 08:17:41;;;;;;;4.65;1.15;;;;;;;13.34;66.28;95975.97;4903600;28;20205;-75
2022/11/16 08:20:07;;;;;;;9.05;1.83;;;;;;;13.34;66.54;95983.81;4911575;28;20347;-74
2022/11/16 08:22:32;;;;;;;4.47;1.75;;;;;;;13.34;66.82;95980.41;4926051;28;20204;-77
2022/11/16 08:24:57;;;;;;;5.03;1.35;;;;;;;13.38;67.16;95978.75;4921171;28;20253;-74
2022/11/16 08:27:23;;;;;;;4.97;1.15;;;;;;;13.40;67.04;95971.41;4914772;28;20262;-75
2022/11/16 08:29:48;;;;;;;4.60;1.00;;;;;;;13.44;67.23;95983.59;4903420;28;20765;-75
2022/11/16 08:32:14;;;;;;;5.00;1.00;;;;;;;13.41;67.14;95975.56;4922649;28;20259;-75
2022/11/16 08:34:39;;;;;;;6.40;1.13;;;;;;;13.56;67.10;95982.34;4911676;28;20277;-75
2022/11/16 08:37:05;;;;;;;8.85;1.23;;;;;;;13.54;66.90;95985.25;4898759;28;20274;-75
2022/11/16 08:39:30;;;;;;;4.07;1.27;;;;;;;13.65;67.20;95980.56;4914576;28;20279;-75
2022/11/16 08:41:55;;;;;;;4.22;1.83;;;;;;;13.75;67.41;95984.84;4920354;28;20204;-74
2022/11/16 08:44:21;;;;;;;9.35;1.85;;;;;;;13.76;67.54;95989.78;4904837;28;20037;-75
2022/11/16 08:46:46;;;;;;;5.45;2.10;;;;;;;13.84;67.70;95983.06;4915135;28;20030;-75
2022/11/16 08:49:11;;;;;;;4.55;2.20;;;;;;;13.75;67.87;95990.06;4916190;28;20189;-75
2022/11/16 08:51:37;;;;;;;4.93;1.60;;;;;;;13.81;67.09;95994.09;4877944;28;20288;-75
2022/11/16 08:54:04;;;;;;;5.20;1.90;;;;;;;14.11;66.78;95997.16;4924134;28;20251;-74
2022/11/16 08:56:30;;;;;;;4.93;1.95;;;;;;;14.11;66.44;95984.06;4924256;28;20678;-75
2022/11/16 08:58:55;;;;;;;5.85;2.05;;;;;;;14.11;66.92;95997.16;4907841;28;20188;-75
2022/11/16 09:01:22;;;;;;;3.92;2.15;;;;;;;14.22;66.70;96003.69;4907896;28;20672;-75
2022/11/16 09:03:48;;;;;;;6.15;2.45;;;;;;;14.23;66.22;95994.78;4928786;28;20217;-75
2022/11/16 09:06:13;;;;;;;4.78;1.83;;;;;;;14.32;66.10;95995.63;4939129;28;20271;-75
2022/11/16 09:08:41;;;;;;;2.83;2.00;;;;;;;14.30;66.08;95989.13;4906364;28;20679;-74
2022/11/16 09:11:12;;;;;;;3.60;1.80;;;;;;;14.23;66.27;95995.56;4938785;28;20258;-75
2022/11/16 09:13:37;;;;;;;4.55;1.83;;;;;;;14.08;66.46;95992.50;4923972;28;20230;-74
2022/11/16 09:16:03;;;;;;;5.20;1.85;;;;;;;13.82;66.69;95995.66;4904818;28;20196;-75
2022/11/16 09:18:29;;;;;;;6.68;1.77;;;;;;;13.80;67.32;96003.03;4925946;28;20323;-75
2022/11/16 09:20:54;;;;;;;4.47;1.80;;;;;;;13.89;67.54;96006.50;4907275;28;20196;-75
2022/11/16 09:23:20;;;;;;;7.32;1.95;;;;;;;14.05;67.25;95999.09;4891757;28;20912;-75
2022/11/16 09:25:47;;;;;;;2.58;1.73;;;;;;;14.14;66.50;95993.94;4924006;28;20323;-75
2022/11/16 09:28:16;;;;;;;3.38;1.45;;;;;;;14.27;66.26;96000.97;4923649;28;20291;-75
2022/11/16 09:30:42;;;;;;;5.93;2.15;;;;;;;14.23;66.44;95995.56;4907272;28;20338;-75
2022/11/16 09:33:08;;;;;;;5.93;1.65;;;;;;;14.18;66.85;95989.66;4924095;28;20162;-75
2022/11/16 09:35:34;;;;;;;4.50;1.48;;;;;;;14.13;66.83;95995.78;4907682;28;20401;-77
2022/11/16 09:37:59;;;;;;;4.22;0.93;;;;;;;13.90;67.11;95991.56;4907110;28;20197;-75
2022/11/16 09:40:45;;;;;;;3.65;1.27;;;;;;;14.14;66.26;95989.47;4888773;28;20373;-75
2022/11/16 09:43:13;;;;;;;;;;;;;;;14.13;66.63;95995.00;4890551;28;20370;-75
2022/11/16 09:45:48;;;;;;;2.95;0.90;;;;;;;13.22;67.73;95992.09;4882451;28;20088;-75
2022/11/16 09:48:14;;;;;;;3.55;1.10;;;;;;;13.71;67.10;95979.41;4907548;28;20274;-75
2022/11/16 09:50:49;;;;;;;4.88;0.90;;;;;;;14.12;66.61;95986.41;4906958;28;20316;-76
2022/11/16 09:53:47;;;;;;;2.80;0.88;;;;;;;14.34;66.23;95990.09;4924128;28;20235;-75
2022/11/16 09:56:26;;;;;;;5.57;1.08;;;;;;;14.23;65.84;95979.06;4891114;28;20267;-75
2022/11/16 09:59:03;;;;;;;2.50;1.33;;;;;;;14.46;65.95;95973.84;4923840;28;20180;-75
2022/11/16 10:01:32;;;;;;;7.25;1.58;;;;;;;14.65;66.36;95977.09;4927066;28;20196;-75
2022/11/16 10:04:13;;;;;;;5.63;1.13;;;;;;;14.47;66.24;95973.53;4911165;28;20204;-75
2022/11/16 10:06:52;;;;;;;5.30;1.35;;;;;;;14.94;65.12;95986.31;4920629;28;20313;-75
2022/11/16 10:09:18;;;;;;;5.95;1.13;;;;;;;15.01;64.56;95976.19;4907470;28;20629;-76
2022/11/16 10:11:51;;;;;;;5.28;1.20;;;;;;;15.19;64.70;95981.50;4894609;28;20200;-75
2022/11/16 10:14:34;;;;;;;4.35;0.90;;;;;;;14.95;64.24;95980.00;4910882;28;20178;-75
2022/11/16 10:17:07;;;;;;;1.70;0.75;;;;;;;15.06;63.74;95977.88;4904152;28;20193;-75
2022/11/16 10:20:03;;;;;;;4.53;1.40;;;;;;;15.15;63.88;95976.84;4910324;28;20363;-76
2022/11/16 10:22:47;;;;;;;2.65;1.17;;;;;;;15.14;64.06;95969.28;4923292;28;20310;-76
2022/11/16 10:25:20;;;;;;;2.80;1.55;;;;;;;15.05;63.72;95963.25;4928288;28;20285;-75
2022/11/16 10:27:50;;;;;;;6.68;1.70;;;;;;;15.24;64.20;95968.25;4926384;28;20212;-75
2022/11/16 10:30:18;;;;;;;4.47;1.20;;;;;;;15.06;64.01;95962.94;4914772;28;20251;-75
2022/11/16 10:32:59;;;;;;;4.22;1.08;;;;;;;15.38;63.68;95966.28;4904062;28;20305;-76
2022/11/16 10:35:31;;;;;;;4.55;0.90;;;;;;;15.43;63.25;95966.13;4921892;28;20256;-76
2022/11/16 10:37:59;;;;;;;4.25;1.48;;;;;;;15.14;63.26;95956.94;4903409;28;20365;-75
2022/11/16 10:40:37;;;;;;;5.75;0.85;;;;;;;15.31;64.05;95953.59;4909054;28;20197;-75
2022/11/16 10:43:17;;;;;;;5.25;1.35;;;;;;;15.48;62.39;95958.13;4893825;28;20569;-75
2022/11/16 10:46:04;;;;;;;2.25;0.60;;;;;;;15.64;62.49;95949.81;4916467;28;20706;-75
2022/11/16 10:48:59;;;;;;;6.07;1.02;;;;;;;15.64;61.33;95944.56;4909654;28;20579;-75
2022/11/16 10:51:25;;;;;;;;;;;;;;;15.46;61.46;95938.53;4925914;28;20317;-75
2022/11/16 10:53:51;;;;;;;5.07;1.00;;;;;;;15.56;61.96;95935.63;4893863;28;20088;-75
2022/11/16 10:56:38;;;;;;;2.10;0.65;;;;;;;15.58;62.46;95930.84;4926081;28;20352;-74
2022/11/16 10:59:14;;;;;;;3.05;1.27;;;;;;;15.51;62.75;95922.66;4925778;28;20655;-75
2022/11/16 11:01:45;;;;;;;6.78;1.80;;;;;;;15.55;62.00;95926.94;4910036;28;20652;-76
2022/11/16 11:04:16;;;;;;;4.85;0.82;;;;;;;15.77;61.31;95927.19;4925830;28;20209;-75
2022/11/16 11:06:42;;;;;;;4.50;0.95;;;;;;;15.64;60.88;95934.06;4925965;28;20228;-74
2022/11/16 11:09:32;;;;;;;3.17;0.60;;;;;;;15.65;60.00;95928.53;4907327;28;20285;-75
2022/11/16 11:15:09;;;;;;;2.85;0.65;;;;;;;15.32;62.10;95938.66;4927827;28;20197;-75
2022/11/16 11:17:39;;;;;;;1.65;0.77;;;;;;;14.86;61.82;95930.16;4927773;28;20204;-75
2022/11/16 11:20:13;;;;;;;2.92;0.57;;;;;;;15.36;61.35;95939.59;4925368;28;20423;-76
2022/11/16 11:22:45;;;;;;;5.32;0.77;;;;;;;15.27;62.63;95944.03;4904399;28;20304;-76
2022/11/16 11:25:31;;;;;;;1.58;0.50;;;;;;;15.45;62.12;95937.75;4907324;28;20200;-76
2022/11/16 11:28:28;;;;;;;3.42;0.70;;;;;;;15.87;61.85;95932.88;4888116;28;20189;-76
2022/11/16 11:31:10;;;;;;;3.60;0.70;;;;;;;16.11;60.43;95926.41;4905910;28;20570;-75
2022/11/16 11:33:58;;;;;;;5.57;1.00;;;;;;;15.94;60.30;95926.38;4925154;28;20199;-75
2022/11/16 11:36:26;;;;;;;3.40;0.90;;;;;;;15.85;61.29;95929.00;4915024;28;20335;-75
2022/11/16 11:38:59;;;;;;;3.67;1.00;;;;;;;16.11;60.62;95929.03;4912164;28;20297;-76
2022/11/16 11:41:26;;;;;;;3.28;0.47;;;;;;;15.81;60.28;95920.22;4924962;28;20235;-76
2022/11/16 11:44:04;;;;;;;6.07;0.80;;;;;;;16.12;60.96;95925.31;4898047;28;20270;-75
2022/11/16 11:46:36;;;;;;;1.40;0.73;;;;;;;15.82;60.07;95919.16;4920389;28;20292;-75
2022/11/16 11:49:13;;;;;;;5.25;0.70;;;;;;;15.76;59.29;95912.50;4908306;28;20695;-75
2022/11/16 11:51:41;;;;;;;4.22;1.15;;;;;;;15.61;61.43;95911.84;4908350;28;20378;-75
2022/11/16 11:54:15;;;;;;;3.35;1.50;;;;;;;15.52;61.71;95922.34;4908550;28;20200;-74
2022/11/16 11:56:40;;;;;;;2.45;0.60;;;;;;;15.44;59.87;95909.19;4923114;28;20690;-75
2022/11/16 11:59:06;;;;;;;3.13;1.13;;;;;;;15.44;60.57;95907.34;4912650;28;20283;-75
2022/11/16 12:01:47;;;;;;;4.40;1.10;;;;;;;15.40;60.43;95909.03;4908293;28;20230;-75
2022/11/16 12:04:30;;;;;;;3.67;1.08;;;;;;;15.59;60.51;95903.50;4926453;28;20222;-75
2022/11/16 12:07:08;;;;;;;6.65;1.15;;;;;;;15.76;60.53;95910.63;4908229;28;20293;-75
2022/11/16 12:09:49;;;;;;;3.60;0.98;;;;;;;15.88;59.54;95897.66;4907630;28;20661;-75
2022/11/16 12:12:26;;;;;;;3.40;0.88;;;;;;;16.01;59.33;95903.84;4908222;28;20228;-75
2022/11/16 12:15:16;;;;;;;3.45;1.38;;;;;;;15.97;58.38;95889.81;4926519;28;20209;-75
2022/11/16 12:17:48;;;;;;;4.80;0.73;;;;;;;15.90;59.74;95885.03;4924107;28;20213;-76
2022/11/16 12:20:21;;;;;;;5.15;1.05;;;;;;;15.93;59.55;95882.84;4906999;28;20208;-76
2022/11/16 12:23:15;;;;;;;4.75;0.70;;;;;;;16.25;60.83;95884.22;4907365;28;20254;-75
2022/11/16 12:25:50;;;;;;;5.40;0.98;;;;;;;16.01;58.65;95874.22;4909226;28;20254;-74